Masuei Maru No32 — JI3612 — position and weather

sailwx.info

Track history (hours):
 
Tides and Currents Weather Stations Pressure Air Temp Water Temp Dewpoint Dewpoint Depression Visibility Wind Speed Wind Dir Waves Ship Positions

Masuei Maru No32

Last reported at 2017-Nov-23 17:56 UTC. Time now 2017-Nov-23 18:26 UTC.
Position N 34°13' E 135°09'.

Length 32 m.

Type: Tug. MMSI: 431301507.

Date/timePositionNaut miles runAvg speedWind from/ knotsBaromVisibWave heightAir tempDewpointWater temp
2017-Nov-23 17:56N 34°13' E 135°09'0 0.0
2017-Nov-23 17:26N 34°13' E 135°09'0 0.0
2017-Nov-23 16:56N 34°13' E 135°09'0 0.0
2017-Nov-23 16:20N 34°13' E 135°09'0 0.0
2017-Nov-23 15:56N 34°13' E 135°09'0 0.0
2017-Nov-23 15:26N 34°13' E 135°09'0 0.0
2017-Nov-23 14:56N 34°13' E 135°09'0 0.0
2017-Nov-23 14:20N 34°13' E 135°09'0 0.0
2017-Nov-23 13:56N 34°13' E 135°09'0 0.0
2017-Nov-23 13:26N 34°13' E 135°09'0 0.0
2017-Nov-23 12:56N 34°13' E 135°09'0 0.0
2017-Nov-23 12:26N 34°13' E 135°09'0 0.0
2017-Nov-23 11:56N 34°13' E 135°09'0 0.0
2017-Nov-23 11:29N 34°13' E 135°09'0 0.0
2017-Nov-23 10:59N 34°13' E 135°09'0 0.0
2017-Nov-23 10:29N 34°13' E 135°09'0 0.0
2017-Nov-23 09:59N 34°13' E 135°09'0 0.0
2017-Nov-23 09:26N 34°13' E 135°09'0 0.0
2017-Nov-23 08:59N 34°13' E 135°09'0 0.0
2017-Nov-23 08:29N 34°13' E 135°09'0 0.0
2017-Nov-23 07:56N 34°13' E 135°09'0 0.0
2017-Nov-23 07:29N 34°13' E 135°09'0 0.0
2017-Nov-23 06:56N 34°13' E 135°09'0 0.0
2017-Nov-23 06:26N 34°13' E 135°09'0 0.0
2017-Nov-23 05:59N 34°13' E 135°09'0 0.0
2017-Nov-23 05:29N 34°13' E 135°09'0 0.0
2017-Nov-23 04:56N 34°13' E 135°09'0 0.0
2017-Nov-23 04:26N 34°13' E 135°09'0 0.0
2017-Nov-23 03:56N 34°13' E 135°09'0 0.0
2017-Nov-23 03:26N 34°13' E 135°09'0 0.0
2017-Nov-23 02:59N 34°13' E 135°09'0 0.0
2017-Nov-23 02:29N 34°13' E 135°09'0 0.0
2017-Nov-23 01:59N 34°13' E 135°09'0 0.0
2017-Nov-23 01:26N 34°13' E 135°09'0 0.0
2017-Nov-23 00:59N 34°13' E 135°09'0 0.0
2017-Nov-23 00:29N 34°13' E 135°09'0 0.0
2017-Nov-22 23:59N 34°13' E 135°09'0 0.0
2017-Nov-22 23:26N 34°13' E 135°09'0 0.0
2017-Nov-22 22:56N 34°13' E 135°09'0 0.0
2017-Nov-22 22:29N 34°13' E 135°09'0 0.0
2017-Nov-22 21:59N 34°13' E 135°09'0 0.0
2017-Nov-22 21:29N 34°13' E 135°09'0 0.0
2017-Nov-22 20:59N 34°13' E 135°09'0 0.0
2017-Nov-22 20:29N 34°13' E 135°09'0 0.0
2017-Nov-22 19:59N 34°13' E 135°09'0 0.0
2017-Nov-22 19:29N 34°13' E 135°09'  
2017-Nov-19 23:19N 34°08' E 135°07'3 9.3
2017-Nov-19 22:59N 34°09' E 135°10'1 2.9
2017-Nov-19 22:30N 34°09' E 135°12'0 0.9
2017-Nov-19 22:00N 34°09' E 135°11'4 4.6
2017-Nov-19 21:09N 34°09' E 135°07'4 6.9
2017-Nov-19 20:36N 34°13' E 135°07'1 8.1
2017-Nov-19 20:30N 34°13' E 135°08'1 1.1
2017-Nov-19 20:00N 34°13' E 135°09'0 0.0
2017-Nov-19 19:30N 34°13' E 135°09'0 0.0
2017-Nov-19 19:00N 34°13' E 135°09'0 0.0
2017-Nov-19 18:30N 34°13' E 135°09'0 0.0
2017-Nov-19 18:00N 34°13' E 135°09'0 0.0
2017-Nov-19 17:30N 34°13' E 135°09'0 0.0
2017-Nov-19 17:00N 34°13' E 135°09'0 0.0
2017-Nov-19 16:30N 34°13' E 135°09'0 0.0
2017-Nov-19 16:00N 34°13' E 135°09'0 0.0
2017-Nov-19 15:30N 34°13' E 135°09'0 0.0
2017-Nov-19 15:00N 34°13' E 135°09'0 0.0
2017-Nov-19 14:30N 34°13' E 135°09'0 0.0
2017-Nov-19 14:00N 34°13' E 135°09'0 0.0
2017-Nov-19 13:30N 34°13' E 135°09'0 0.0
2017-Nov-19 13:00N 34°13' E 135°09'0 0.0
2017-Nov-19 12:30N 34°13' E 135°09'0 0.0
2017-Nov-19 12:00N 34°13' E 135°09'0 0.0
2017-Nov-19 11:30N 34°13' E 135°09'0 0.0
2017-Nov-19 11:00N 34°13' E 135°09'0 0.0
2017-Nov-19 10:30N 34°13' E 135°09'0 0.0
2017-Nov-19 10:00N 34°13' E 135°09'0 0.0
2017-Nov-19 09:30N 34°13' E 135°09'0 0.0
2017-Nov-19 08:54N 34°13' E 135°09'0 0.0
2017-Nov-19 07:18N 34°13' E 135°09'0 0.0
2017-Nov-19 07:00N 34°13' E 135°09'0 0.0
2017-Nov-19 06:30N 34°13' E 135°09'0 0.0
2017-Nov-19 06:00N 34°13' E 135°09'0 0.0
2017-Nov-19 05:30N 34°13' E 135°09'0 0.0
2017-Nov-19 05:00N 34°13' E 135°09'0 0.0
2017-Nov-19 04:30N 34°13' E 135°09'0 0.0
2017-Nov-19 04:00N 34°13' E 135°09'0 0.0
2017-Nov-19 03:30N 34°13' E 135°09'0 0.0
2017-Nov-19 03:00N 34°13' E 135°09'0 0.0
2017-Nov-19 02:30N 34°13' E 135°09'0 0.0
2017-Nov-19 02:00N 34°13' E 135°09'0 0.0
2017-Nov-19 01:30N 34°13' E 135°09'0 0.0
2017-Nov-19 01:00N 34°13' E 135°09'0 0.0
2017-Nov-19 00:30N 34°13' E 135°09'0 0.0
2017-Nov-19 00:00N 34°13' E 135°09'0 0.0
2017-Nov-18 23:30N 34°13' E 135°09'0 0.0
2017-Nov-18 23:00N 34°13' E 135°09'0 0.0
2017-Nov-18 22:30N 34°13' E 135°09'0 0.0
2017-Nov-18 22:00N 34°13' E 135°09'0 0.0
2017-Nov-18 21:30N 34°13' E 135°09'0 0.0
2017-Nov-18 21:00N 34°13' E 135°09'0 0.0
2017-Nov-18 20:30N 34°13' E 135°09'0 0.0
2017-Nov-18 20:00N 34°13' E 135°09'0 0.0
2017-Nov-18 19:30N 34°13' E 135°09'0 0.0
2017-Nov-18 19:00N 34°13' E 135°09'0 0.0
2017-Nov-18 18:27N 34°13' E 135°09'0 0.0
2017-Nov-18 18:00N 34°13' E 135°09'0 0.0
2017-Nov-18 17:30N 34°13' E 135°09'0 0.0
2017-Nov-18 17:00N 34°13' E 135°09'0 0.0
2017-Nov-18 16:30N 34°13' E 135°09'0 0.0
2017-Nov-18 16:00N 34°13' E 135°09'0 0.0
2017-Nov-18 15:30N 34°13' E 135°09'0 0.0
2017-Nov-18 15:00N 34°13' E 135°09'0 0.0
2017-Nov-18 14:30N 34°13' E 135°09'0 0.0
2017-Nov-18 14:00N 34°13' E 135°09'0 0.0
2017-Nov-18 13:30N 34°13' E 135°09'0 0.0
2017-Nov-18 13:00N 34°13' E 135°09'0 0.0
2017-Nov-18 12:30N 34°13' E 135°09'0 0.0
2017-Nov-18 12:00N 34°13' E 135°09'0 0.0
2017-Nov-18 11:30N 34°13' E 135°09'1 1.7
2017-Nov-18 10:59N 34°13' E 135°08'1 1.2
2017-Nov-18 09:53N 34°14' E 135°08'0 0.9
2017-Nov-18 09:30N 34°14' E 135°07'2 2.7
2017-Nov-18 08:53N 34°13' E 135°05'1 2.1
2017-Nov-18 08:30N 34°13' E 135°06'2 4.2
2017-Nov-18 07:58N 34°13' E 135°09'0 0.0
2017-Nov-18 07:28N 34°13' E 135°09'0 0.0
2017-Nov-18 06:58N 34°13' E 135°09'0 0.0
2017-Nov-18 06:28N 34°13' E 135°09'1 1.8
2017-Nov-18 06:00N 34°13' E 135°08'0 0.9
2017-Nov-18 05:30N 34°13' E 135°08'1 0.9
2017-Nov-18 04:58N 34°13' E 135°09'0 0.0
2017-Nov-18 04:28N 34°13' E 135°09'0 0.0
2017-Nov-18 03:58N 34°13' E 135°09'0 0.0
2017-Nov-18 03:28N 34°13' E 135°09'0 0.0
2017-Nov-18 02:58N 34°13' E 135°09'0 0.0
2017-Nov-18 02:28N 34°13' E 135°09'0 0.0
2017-Nov-18 01:58N 34°13' E 135°09'0 0.0
2017-Nov-18 01:28N 34°13' E 135°09'0 0.0
2017-Nov-18 00:58N 34°13' E 135°09'0 0.0
2017-Nov-18 00:28N 34°13' E 135°09'0 0.0
2017-Nov-17 23:58N 34°13' E 135°09'0 0.0
2017-Nov-17 23:28N 34°13' E 135°09'0 0.0
2017-Nov-17 22:58N 34°13' E 135°09'0 0.0
2017-Nov-17 22:28N 34°13' E 135°09'0 0.0
2017-Nov-17 21:58N 34°13' E 135°09'0 0.0
2017-Nov-17 21:28N 34°13' E 135°09'0 0.0
2017-Nov-17 20:58N 34°13' E 135°09'0 0.0
2017-Nov-17 20:28N 34°13' E 135°09'0 0.0
2017-Nov-17 19:58N 34°13' E 135°09'0 0.0
2017-Nov-17 19:28N 34°13' E 135°09'0 0.0
2017-Nov-17 18:58N 34°13' E 135°09'0 0.0
2017-Nov-17 18:28N 34°13' E 135°09'0 0.0
2017-Nov-17 17:58N 34°13' E 135°09'0 0.0
2017-Nov-17 17:28N 34°13' E 135°09'0 0.0
2017-Nov-17 16:58N 34°13' E 135°09'0 0.0
2017-Nov-17 16:28N 34°13' E 135°09'0 0.0
2017-Nov-17 15:58N 34°13' E 135°09'0 0.0
2017-Nov-17 15:28N 34°13' E 135°09'0 0.0
2017-Nov-17 14:55N 34°13' E 135°09'0 0.0
2017-Nov-17 14:28N 34°13' E 135°09'0 0.0
2017-Nov-17 13:58N 34°13' E 135°09'0 0.0
2017-Nov-17 13:28N 34°13' E 135°09'0 0.0
2017-Nov-17 12:58N 34°13' E 135°09'0 0.0
2017-Nov-17 12:28N 34°13' E 135°09'0 0.0
2017-Nov-17 11:58N 34°13' E 135°09'0 0.0
2017-Nov-17 11:28N 34°13' E 135°09'0 0.0
2017-Nov-17 10:58N 34°13' E 135°09'0 0.0
2017-Nov-17 10:28N 34°13' E 135°09'0 0.0
2017-Nov-17 09:58N 34°13' E 135°09'0 0.0
2017-Nov-17 09:28N 34°13' E 135°09'0 0.0
2017-Nov-17 08:58N 34°13' E 135°09'0 0.0
2017-Nov-17 08:28N 34°13' E 135°09'0 0.0
2017-Nov-17 07:58N 34°13' E 135°09'0 0.0
2017-Nov-17 07:28N 34°13' E 135°09'0 0.0
2017-Nov-17 06:58N 34°13' E 135°09'0 0.0
2017-Nov-17 06:28N 34°13' E 135°09'1 0.5
2017-Nov-17 05:15N 34°13' E 135°09'0 0.0
2017-Nov-17 04:57N 34°13' E 135°09'0 0.6
2017-Nov-17 04:30N 34°13' E 135°08'1 1.7
2017-Nov-17 03:39N 34°14' E 135°08'0 0.6
2017-Nov-17 03:13N 34°14' E 135°07'1 2.5
2017-Nov-17 03:00N 34°14' E 135°07'1 1.2
2017-Nov-17 02:29N 34°15' E 135°06'0 0.4
2017-Nov-17 01:47N 34°14' E 135°06'0 0.1
2017-Nov-17 00:57N 34°14' E 135°06'1 2.9
2017-Nov-17 00:30N 34°14' E 135°08'1 1.9
2017-Nov-16 23:59N 34°14' E 135°06'0 0.0
2017-Nov-16 23:29N 34°14' E 135°06'0 0.0
2017-Nov-16 22:59N 34°14' E 135°06'1 1.6
2017-Nov-16 22:27N 34°14' E 135°08'1 2.4
2017-Nov-16 22:00N 34°14' E 135°06'1 1.3
2017-Nov-16 21:30N 34°14' E 135°06'3 5.4
2017-Nov-16 20:58N 34°13' E 135°09'0 0.0
2017-Nov-16 20:28N 34°13' E 135°09'0 0.0
2017-Nov-16 19:58N 34°13' E 135°09'0 0.0
2017-Nov-16 19:28N 34°13' E 135°09'0 0.0
2017-Nov-16 18:58N 34°13' E 135°09'0 0.0
2017-Nov-16 18:28N 34°13' E 135°09'0 0.0
2017-Nov-16 17:58N 34°13' E 135°09'0 0.0
2017-Nov-16 17:28N 34°13' E 135°09'0 0.0
2017-Nov-16 16:58N 34°13' E 135°09'0 0.0
2017-Nov-16 16:28N 34°13' E 135°09'0 0.0
2017-Nov-16 15:55N 34°13' E 135°09'0 0.0
2017-Nov-16 15:28N 34°13' E 135°09'0 0.0
2017-Nov-16 14:58N 34°13' E 135°09'0 0.0
2017-Nov-16 14:28N 34°13' E 135°09'0 0.0
2017-Nov-16 13:58N 34°13' E 135°09'0 0.0
2017-Nov-16 13:28N 34°13' E 135°09'0 0.0
2017-Nov-16 12:58N 34°13' E 135°09'0 0.0
2017-Nov-16 12:28N 34°13' E 135°09'0 0.0
2017-Nov-16 11:58N 34°13' E 135°09'0 0.0
2017-Nov-16 11:28N 34°13' E 135°09'0 0.0
2017-Nov-16 10:58N 34°13' E 135°09'0 0.0
2017-Nov-16 10:25N 34°13' E 135°09'0 0.0
2017-Nov-16 09:58N 34°13' E 135°09'0 0.0
2017-Nov-16 09:28N 34°13' E 135°09'0 0.0
2017-Nov-16 08:58N 34°13' E 135°09'0 0.0
2017-Nov-16 08:28N 34°13' E 135°09'0 0.0
2017-Nov-16 07:58N 34°13' E 135°09'0 0.0
2017-Nov-16 07:28N 34°13' E 135°09'0 0.0
2017-Nov-16 06:58N 34°13' E 135°09'0 0.0
2017-Nov-16 06:28N 34°13' E 135°09'0 0.0
2017-Nov-16 05:58N 34°13' E 135°09'0 0.0
2017-Nov-16 05:28N 34°13' E 135°09'0 0.0
2017-Nov-16 04:58N 34°13' E 135°09'0 0.0
2017-Nov-16 04:28N 34°13' E 135°09'0 0.0
2017-Nov-16 03:58N 34°13' E 135°09'0 0.0
2017-Nov-16 03:28N 34°13' E 135°09'0 0.0
2017-Nov-16 02:58N 34°13' E 135°09'0 0.0
2017-Nov-16 02:28N 34°13' E 135°09'0 0.0
2017-Nov-16 01:58N 34°13' E 135°09'0 0.0
2017-Nov-16 01:28N 34°13' E 135°09'0 0.0
2017-Nov-16 00:58N 34°13' E 135°09'0 0.0
2017-Nov-16 00:28N 34°13' E 135°09'0 0.0
2017-Nov-15 23:58N 34°13' E 135°09'0 0.0
2017-Nov-15 23:28N 34°13' E 135°09'0 0.0
2017-Nov-15 22:58N 34°13' E 135°09'0 0.0
2017-Nov-15 22:28N 34°13' E 135°09'0 0.0
2017-Nov-15 21:58N 34°13' E 135°09'0 0.0
2017-Nov-15 21:28N 34°13' E 135°09'0 0.0
2017-Nov-15 20:58N 34°13' E 135°09'0 0.0
2017-Nov-15 20:28N 34°13' E 135°09'0 0.0
2017-Nov-15 19:58N 34°13' E 135°09'0 0.0
2017-Nov-15 19:28N 34°13' E 135°09'0 0.0
2017-Nov-15 18:58N 34°13' E 135°09'0 0.0
2017-Nov-15 18:28N 34°13' E 135°09'0 0.0
2017-Nov-15 17:58N 34°13' E 135°09'0 0.0
2017-Nov-15 17:28N 34°13' E 135°09'0 0.0
2017-Nov-15 16:58N 34°13' E 135°09'0 0.0
2017-Nov-15 16:28N 34°13' E 135°09'0 0.0
2017-Nov-15 15:58N 34°13' E 135°09'0 0.0
2017-Nov-15 15:28N 34°13' E 135°09'0 0.0
2017-Nov-15 14:58N 34°13' E 135°09'0 0.0
2017-Nov-15 14:28N 34°13' E 135°09'0 0.0
2017-Nov-15 13:58N 34°13' E 135°09'0 0.0
2017-Nov-15 13:28N 34°13' E 135°09'0 0.0
2017-Nov-15 12:58N 34°13' E 135°09'0 0.0
2017-Nov-15 12:28N 34°13' E 135°09'0 0.0
2017-Nov-15 11:58N 34°13' E 135°09'0 0.0
2017-Nov-15 11:28N 34°13' E 135°09'0 0.0
2017-Nov-15 10:58N 34°13' E 135°09'0 0.0
2017-Nov-15 10:28N 34°13' E 135°09'0 0.0
2017-Nov-15 09:58N 34°13' E 135°09'0 0.0
2017-Nov-15 09:28N 34°13' E 135°09'0 0.0
2017-Nov-15 08:58N 34°13' E 135°09'0 0.0
2017-Nov-15 08:28N 34°13' E 135°09'0 0.0
2017-Nov-15 07:58N 34°13' E 135°09'0 0.0
2017-Nov-15 07:28N 34°13' E 135°09'0 0.0
2017-Nov-15 06:58N 34°13' E 135°09'0 0.0
2017-Nov-15 06:28N 34°13' E 135°09'0 0.0
2017-Nov-15 05:58N 34°13' E 135°09'0 0.0
2017-Nov-15 05:28N 34°13' E 135°09'0 0.0
2017-Nov-15 04:58N 34°13' E 135°09'0 0.0
2017-Nov-15 04:28N 34°13' E 135°09'0 0.0
2017-Nov-15 03:58N 34°13' E 135°09'0 0.0
2017-Nov-15 03:28N 34°13' E 135°09'0 0.0
2017-Nov-15 02:58N 34°13' E 135°09'0 0.0
2017-Nov-15 02:28N 34°13' E 135°09'0 0.0
2017-Nov-15 01:58N 34°13' E 135°09'0 0.0
2017-Nov-15 01:28N 34°13' E 135°09'0 0.0
2017-Nov-15 00:58N 34°13' E 135°09'0 0.0
2017-Nov-15 00:28N 34°13' E 135°09'0 0.0
2017-Nov-14 23:58N 34°13' E 135°09'0 0.0
2017-Nov-14 23:28N 34°13' E 135°09'0 0.0
2017-Nov-14 22:58N 34°13' E 135°09'0 0.0
2017-Nov-14 22:28N 34°13' E 135°09'0 0.0
2017-Nov-14 21:58N 34°13' E 135°09'0 0.0
2017-Nov-14 21:28N 34°13' E 135°09'0 0.0
2017-Nov-14 20:58N 34°13' E 135°09'0 0.0
2017-Nov-14 20:28N 34°13' E 135°09'0 0.0
2017-Nov-14 19:58N 34°13' E 135°09'0 0.0
2017-Nov-14 19:28N 34°13' E 135°09'0 0.0
2017-Nov-14 18:58N 34°13' E 135°09'0 0.0
2017-Nov-14 18:28N 34°13' E 135°09'0 0.0
2017-Nov-14 17:58N 34°13' E 135°09'0 0.0
2017-Nov-14 17:28N 34°13' E 135°09'0 0.0
2017-Nov-14 16:58N 34°13' E 135°09'0 0.0
2017-Nov-14 16:28N 34°13' E 135°09'0 0.0
2017-Nov-14 15:58N 34°13' E 135°09'0 0.0
2017-Nov-14 15:28N 34°13' E 135°09'0 0.0
2017-Nov-14 14:58N 34°13' E 135°09'0 0.0
2017-Nov-14 14:28N 34°13' E 135°09'0 0.0
2017-Nov-14 13:58N 34°13' E 135°09'0 0.0
2017-Nov-14 13:28N 34°13' E 135°09'0 0.0
2017-Nov-14 12:55N 34°13' E 135°09'0 0.0
2017-Nov-14 12:28N 34°13' E 135°09'0 0.0
2017-Nov-14 11:58N 34°13' E 135°09'0 0.0
2017-Nov-14 11:28N 34°13' E 135°09'0 0.0
2017-Nov-14 10:58N 34°13' E 135°09'0 0.0
2017-Nov-14 10:28N 34°13' E 135°09'0 0.0
2017-Nov-14 09:58N 34°13' E 135°09'0 0.0
2017-Nov-14 09:28N 34°13' E 135°09'0 0.0
2017-Nov-14 08:58N 34°13' E 135°09'0 0.0
2017-Nov-14 08:28N 34°13' E 135°09'0 0.0
2017-Nov-14 07:58N 34°13' E 135°09'0 0.0
2017-Nov-14 07:28N 34°13' E 135°09'0 0.0
2017-Nov-14 06:58N 34°13' E 135°09'0 0.0
2017-Nov-14 06:28N 34°13' E 135°09'0 0.0
2017-Nov-14 05:58N 34°13' E 135°09'0 0.0
2017-Nov-14 05:28N 34°13' E 135°09'0 0.0
2017-Nov-14 04:58N 34°13' E 135°09'0 0.0
2017-Nov-14 04:28N 34°13' E 135°09'0 0.0
2017-Nov-14 03:58N 34°13' E 135°09'0 0.0
2017-Nov-14 03:28N 34°13' E 135°09'0 0.0
2017-Nov-14 02:58N 34°13' E 135°09'2 5.4
2017-Nov-14 02:30N 34°14' E 135°06'1 1.9
2017-Nov-14 01:55N 34°14' E 135°08'1 2.4
2017-Nov-14 01:29N 34°14' E 135°06'1 1.5
2017-Nov-14 01:00N 34°14' E 135°05'4 8.2
2017-Nov-14 00:30N 34°10' E 135°06'3 1.8
2017-Nov-13 23:01N 34°12' E 135°08'010.9
2017-Nov-13 22:59N 34°13' E 135°08'1 2.0
2017-Nov-13 22:30N 34°13' E 135°09'0 0.0
2017-Nov-13 22:00N 34°13' E 135°09'  
Track history (hours):
 
Tides and Currents Weather Stations Pressure Air Temp Water Temp Dewpoint Dewpoint Depression Visibility Wind Speed Wind Dir Waves Ship Positions

Masuei Maru No32

Last reported at 2017-Nov-23 17:56 UTC. Time now 2017-Nov-23 18:26 UTC.
Position N 34°13' E 135°09'.

Length 32 m.

Type: Tug. MMSI: 431301507.

Date/timePositionNaut miles runAvg speedWind from/ knotsBaromVisibWave heightAir tempDewpointWater temp
2017-Nov-23 17:56N 34°13' E 135°09'0 0.0
2017-Nov-23 17:26N 34°13' E 135°09'0 0.0
2017-Nov-23 16:56N 34°13' E 135°09'0 0.0
2017-Nov-23 16:20N 34°13' E 135°09'0 0.0
2017-Nov-23 15:56N 34°13' E 135°09'0 0.0
2017-Nov-23 15:26N 34°13' E 135°09'0 0.0
2017-Nov-23 14:56N 34°13' E 135°09'0 0.0
2017-Nov-23 14:20N 34°13' E 135°09'0 0.0
2017-Nov-23 13:56N 34°13' E 135°09'0 0.0
2017-Nov-23 13:26N 34°13' E 135°09'0 0.0
2017-Nov-23 12:56N 34°13' E 135°09'0 0.0
2017-Nov-23 12:26N 34°13' E 135°09'0 0.0
2017-Nov-23 11:56N 34°13' E 135°09'0 0.0
2017-Nov-23 11:29N 34°13' E 135°09'0 0.0
2017-Nov-23 10:59N 34°13' E 135°09'0 0.0
2017-Nov-23 10:29N 34°13' E 135°09'0 0.0
2017-Nov-23 09:59N 34°13' E 135°09'0 0.0
2017-Nov-23 09:26N 34°13' E 135°09'0 0.0
2017-Nov-23 08:59N 34°13' E 135°09'0 0.0
2017-Nov-23 08:29N 34°13' E 135°09'0 0.0
2017-Nov-23 07:56N 34°13' E 135°09'0 0.0
2017-Nov-23 07:29N 34°13' E 135°09'0 0.0
2017-Nov-23 06:56N 34°13' E 135°09'0 0.0
2017-Nov-23 06:26N 34°13' E 135°09'0 0.0
2017-Nov-23 05:59N 34°13' E 135°09'0 0.0
2017-Nov-23 05:29N 34°13' E 135°09'0 0.0
2017-Nov-23 04:56N 34°13' E 135°09'0 0.0
2017-Nov-23 04:26N 34°13' E 135°09'0 0.0
2017-Nov-23 03:56N 34°13' E 135°09'0 0.0
2017-Nov-23 03:26N 34°13' E 135°09'0 0.0
2017-Nov-23 02:59N 34°13' E 135°09'0 0.0
2017-Nov-23 02:29N 34°13' E 135°09'0 0.0
2017-Nov-23 01:59N 34°13' E 135°09'0 0.0
2017-Nov-23 01:26N 34°13' E 135°09'0 0.0
2017-Nov-23 00:59N 34°13' E 135°09'0 0.0
2017-Nov-23 00:29N 34°13' E 135°09'0 0.0
2017-Nov-22 23:59N 34°13' E 135°09'0 0.0
2017-Nov-22 23:26N 34°13' E 135°09'0 0.0
2017-Nov-22 22:56N 34°13' E 135°09'0 0.0
2017-Nov-22 22:29N 34°13' E 135°09'0 0.0
2017-Nov-22 21:59N 34°13' E 135°09'0 0.0
2017-Nov-22 21:29N 34°13' E 135°09'0 0.0
2017-Nov-22 20:59N 34°13' E 135°09'0 0.0
2017-Nov-22 20:29N 34°13' E 135°09'0 0.0
2017-Nov-22 19:59N 34°13' E 135°09'0 0.0
2017-Nov-22 19:29N 34°13' E 135°09'  
2017-Nov-19 23:19N 34°08' E 135°07'3 9.3
2017-Nov-19 22:59N 34°09' E 135°10'1 2.9
2017-Nov-19 22:30N 34°09' E 135°12'0 0.9
2017-Nov-19 22:00N 34°09' E 135°11'4 4.6
2017-Nov-19 21:09N 34°09' E 135°07'4 6.9
2017-Nov-19 20:36N 34°13' E 135°07'1 8.1
2017-Nov-19 20:30N 34°13' E 135°08'1 1.1
2017-Nov-19 20:00N 34°13' E 135°09'0 0.0
2017-Nov-19 19:30N 34°13' E 135°09'0 0.0
2017-Nov-19 19:00N 34°13' E 135°09'0 0.0
2017-Nov-19 18:30N 34°13' E 135°09'0 0.0
2017-Nov-19 18:00N 34°13' E 135°09'0 0.0
2017-Nov-19 17:30N 34°13' E 135°09'0 0.0
2017-Nov-19 17:00N 34°13' E 135°09'0 0.0
2017-Nov-19 16:30N 34°13' E 135°09'0 0.0
2017-Nov-19 16:00N 34°13' E 135°09'0 0.0
2017-Nov-19 15:30N 34°13' E 135°09'0 0.0
2017-Nov-19 15:00N 34°13' E 135°09'0 0.0
2017-Nov-19 14:30N 34°13' E 135°09'0 0.0
2017-Nov-19 14:00N 34°13' E 135°09'0 0.0
2017-Nov-19 13:30N 34°13' E 135°09'0 0.0
2017-Nov-19 13:00N 34°13' E 135°09'0 0.0
2017-Nov-19 12:30N 34°13' E 135°09'0 0.0
2017-Nov-19 12:00N 34°13' E 135°09'0 0.0
2017-Nov-19 11:30N 34°13' E 135°09'0 0.0
2017-Nov-19 11:00N 34°13' E 135°09'0 0.0
2017-Nov-19 10:30N 34°13' E 135°09'0 0.0
2017-Nov-19 10:00N 34°13' E 135°09'0 0.0
2017-Nov-19 09:30N 34°13' E 135°09'0 0.0
2017-Nov-19 08:54N 34°13' E 135°09'0 0.0
2017-Nov-19 07:18N 34°13' E 135°09'0 0.0
2017-Nov-19 07:00N 34°13' E 135°09'0 0.0
2017-Nov-19 06:30N 34°13' E 135°09'0 0.0
2017-Nov-19 06:00N 34°13' E 135°09'0 0.0
2017-Nov-19 05:30N 34°13' E 135°09'0 0.0
2017-Nov-19 05:00N 34°13' E 135°09'0 0.0
2017-Nov-19 04:30N 34°13' E 135°09'0 0.0
2017-Nov-19 04:00N 34°13' E 135°09'0 0.0
2017-Nov-19 03:30N 34°13' E 135°09'0 0.0
2017-Nov-19 03:00N 34°13' E 135°09'0 0.0
2017-Nov-19 02:30N 34°13' E 135°09'0 0.0
2017-Nov-19 02:00N 34°13' E 135°09'0 0.0
2017-Nov-19 01:30N 34°13' E 135°09'0 0.0
2017-Nov-19 01:00N 34°13' E 135°09'0 0.0
2017-Nov-19 00:30N 34°13' E 135°09'0 0.0
2017-Nov-19 00:00N 34°13' E 135°09'0 0.0
2017-Nov-18 23:30N 34°13' E 135°09'0 0.0
2017-Nov-18 23:00N 34°13' E 135°09'0 0.0
2017-Nov-18 22:30N 34°13' E 135°09'0 0.0
2017-Nov-18 22:00N 34°13' E 135°09'0 0.0
2017-Nov-18 21:30N 34°13' E 135°09'0 0.0
2017-Nov-18 21:00N 34°13' E 135°09'0 0.0
2017-Nov-18 20:30N 34°13' E 135°09'0 0.0
2017-Nov-18 20:00N 34°13' E 135°09'0 0.0
2017-Nov-18 19:30N 34°13' E 135°09'0 0.0
2017-Nov-18 19:00N 34°13' E 135°09'0 0.0
2017-Nov-18 18:27N 34°13' E 135°09'0 0.0
2017-Nov-18 18:00N 34°13' E 135°09'0 0.0
2017-Nov-18 17:30N 34°13' E 135°09'0 0.0
2017-Nov-18 17:00N 34°13' E 135°09'0 0.0
2017-Nov-18 16:30N 34°13' E 135°09'0 0.0
2017-Nov-18 16:00N 34°13' E 135°09'0 0.0
2017-Nov-18 15:30N 34°13' E 135°09'0 0.0
2017-Nov-18 15:00N 34°13' E 135°09'0 0.0
2017-Nov-18 14:30N 34°13' E 135°09'0 0.0
2017-Nov-18 14:00N 34°13' E 135°09'0 0.0
2017-Nov-18 13:30N 34°13' E 135°09'0 0.0
2017-Nov-18 13:00N 34°13' E 135°09'0 0.0
2017-Nov-18 12:30N 34°13' E 135°09'0 0.0
2017-Nov-18 12:00N 34°13' E 135°09'0 0.0
2017-Nov-18 11:30N 34°13' E 135°09'1 1.7
2017-Nov-18 10:59N 34°13' E 135°08'1 1.2
2017-Nov-18 09:53N 34°14' E 135°08'0 0.9
2017-Nov-18 09:30N 34°14' E 135°07'2 2.7
2017-Nov-18 08:53N 34°13' E 135°05'1 2.1
2017-Nov-18 08:30N 34°13' E 135°06'2 4.2
2017-Nov-18 07:58N 34°13' E 135°09'0 0.0
2017-Nov-18 07:28N 34°13' E 135°09'0 0.0
2017-Nov-18 06:58N 34°13' E 135°09'0 0.0
2017-Nov-18 06:28N 34°13' E 135°09'1 1.8
2017-Nov-18 06:00N 34°13' E 135°08'0 0.9
2017-Nov-18 05:30N 34°13' E 135°08'1 0.9
2017-Nov-18 04:58N 34°13' E 135°09'0 0.0
2017-Nov-18 04:28N 34°13' E 135°09'0 0.0
2017-Nov-18 03:58N 34°13' E 135°09'0 0.0
2017-Nov-18 03:28N 34°13' E 135°09'0 0.0
2017-Nov-18 02:58N 34°13' E 135°09'0 0.0
2017-Nov-18 02:28N 34°13' E 135°09'0 0.0
2017-Nov-18 01:58N 34°13' E 135°09'0 0.0
2017-Nov-18 01:28N 34°13' E 135°09'0 0.0
2017-Nov-18 00:58N 34°13' E 135°09'0 0.0
2017-Nov-18 00:28N 34°13' E 135°09'0 0.0
2017-Nov-17 23:58N 34°13' E 135°09'0 0.0
2017-Nov-17 23:28N 34°13' E 135°09'0 0.0
2017-Nov-17 22:58N 34°13' E 135°09'0 0.0
2017-Nov-17 22:28N 34°13' E 135°09'0 0.0
2017-Nov-17 21:58N 34°13' E 135°09'0 0.0
2017-Nov-17 21:28N 34°13' E 135°09'0 0.0
2017-Nov-17 20:58N 34°13' E 135°09'0 0.0
2017-Nov-17 20:28N 34°13' E 135°09'0 0.0
2017-Nov-17 19:58N 34°13' E 135°09'0 0.0
2017-Nov-17 19:28N 34°13' E 135°09'0 0.0
2017-Nov-17 18:58N 34°13' E 135°09'0 0.0
2017-Nov-17 18:28N 34°13' E 135°09'0 0.0
2017-Nov-17 17:58N 34°13' E 135°09'0 0.0
2017-Nov-17 17:28N 34°13' E 135°09'0 0.0
2017-Nov-17 16:58N 34°13' E 135°09'0 0.0
2017-Nov-17 16:28N 34°13' E 135°09'0 0.0
2017-Nov-17 15:58N 34°13' E 135°09'0 0.0
2017-Nov-17 15:28N 34°13' E 135°09'0 0.0
2017-Nov-17 14:55N 34°13' E 135°09'0 0.0
2017-Nov-17 14:28N 34°13' E 135°09'0 0.0
2017-Nov-17 13:58N 34°13' E 135°09'0 0.0
2017-Nov-17 13:28N 34°13' E 135°09'0 0.0
2017-Nov-17 12:58N 34°13' E 135°09'0 0.0
2017-Nov-17 12:28N 34°13' E 135°09'0 0.0
2017-Nov-17 11:58N 34°13' E 135°09'0 0.0
2017-Nov-17 11:28N 34°13' E 135°09'0 0.0
2017-Nov-17 10:58N 34°13' E 135°09'0 0.0
2017-Nov-17 10:28N 34°13' E 135°09'0 0.0
2017-Nov-17 09:58N 34°13' E 135°09'0 0.0
2017-Nov-17 09:28N 34°13' E 135°09'0 0.0
2017-Nov-17 08:58N 34°13' E 135°09'0 0.0
2017-Nov-17 08:28N 34°13' E 135°09'0 0.0
2017-Nov-17 07:58N 34°13' E 135°09'0 0.0
2017-Nov-17 07:28N 34°13' E 135°09'0 0.0
2017-Nov-17 06:58N 34°13' E 135°09'0 0.0
2017-Nov-17 06:28N 34°13' E 135°09'1 0.5
2017-Nov-17 05:15N 34°13' E 135°09'0 0.0
2017-Nov-17 04:57N 34°13' E 135°09'0 0.6
2017-Nov-17 04:30N 34°13' E 135°08'1 1.7
2017-Nov-17 03:39N 34°14' E 135°08'0 0.6
2017-Nov-17 03:13N 34°14' E 135°07'1 2.5
2017-Nov-17 03:00N 34°14' E 135°07'1 1.2
2017-Nov-17 02:29N 34°15' E 135°06'0 0.4
2017-Nov-17 01:47N 34°14' E 135°06'0 0.1
2017-Nov-17 00:57N 34°14' E 135°06'1 2.9
2017-Nov-17 00:30N 34°14' E 135°08'1 1.9
2017-Nov-16 23:59N 34°14' E 135°06'0 0.0
2017-Nov-16 23:29N 34°14' E 135°06'0 0.0
2017-Nov-16 22:59N 34°14' E 135°06'1 1.6
2017-Nov-16 22:27N 34°14' E 135°08'1 2.4
2017-Nov-16 22:00N 34°14' E 135°06'1 1.3
2017-Nov-16 21:30N 34°14' E 135°06'3 5.4
2017-Nov-16 20:58N 34°13' E 135°09'0 0.0
2017-Nov-16 20:28N 34°13' E 135°09'0 0.0
2017-Nov-16 19:58N 34°13' E 135°09'0 0.0
2017-Nov-16 19:28N 34°13' E 135°09'0 0.0
2017-Nov-16 18:58N 34°13' E 135°09'0 0.0
2017-Nov-16 18:28N 34°13' E 135°09'0 0.0
2017-Nov-16 17:58N 34°13' E 135°09'0 0.0
2017-Nov-16 17:28N 34°13' E 135°09'0 0.0
2017-Nov-16 16:58N 34°13' E 135°09'0 0.0
2017-Nov-16 16:28N 34°13' E 135°09'0 0.0
2017-Nov-16 15:55N 34°13' E 135°09'0 0.0
2017-Nov-16 15:28N 34°13' E 135°09'0 0.0
2017-Nov-16 14:58N 34°13' E 135°09'0 0.0
2017-Nov-16 14:28N 34°13' E 135°09'0 0.0
2017-Nov-16 13:58N 34°13' E 135°09'0 0.0
2017-Nov-16 13:28N 34°13' E 135°09'0 0.0
2017-Nov-16 12:58N 34°13' E 135°09'0 0.0
2017-Nov-16 12:28N 34°13' E 135°09'0 0.0
2017-Nov-16 11:58N 34°13' E 135°09'0 0.0
2017-Nov-16 11:28N 34°13' E 135°09'0 0.0
2017-Nov-16 10:58N 34°13' E 135°09'0 0.0
2017-Nov-16 10:25N 34°13' E 135°09'0 0.0
2017-Nov-16 09:58N 34°13' E 135°09'0 0.0
2017-Nov-16 09:28N 34°13' E 135°09'0 0.0
2017-Nov-16 08:58N 34°13' E 135°09'0 0.0
2017-Nov-16 08:28N 34°13' E 135°09'0 0.0
2017-Nov-16 07:58N 34°13' E 135°09'0 0.0
2017-Nov-16 07:28N 34°13' E 135°09'0 0.0
2017-Nov-16 06:58N 34°13' E 135°09'0 0.0
2017-Nov-16 06:28N 34°13' E 135°09'0 0.0
2017-Nov-16 05:58N 34°13' E 135°09'0 0.0
2017-Nov-16 05:28N 34°13' E 135°09'0 0.0
2017-Nov-16 04:58N 34°13' E 135°09'0 0.0
2017-Nov-16 04:28N 34°13' E 135°09'0 0.0
2017-Nov-16 03:58N 34°13' E 135°09'0 0.0
2017-Nov-16 03:28N 34°13' E 135°09'0 0.0
2017-Nov-16 02:58N 34°13' E 135°09'0 0.0
2017-Nov-16 02:28N 34°13' E 135°09'0 0.0
2017-Nov-16 01:58N 34°13' E 135°09'0 0.0
2017-Nov-16 01:28N 34°13' E 135°09'0 0.0
2017-Nov-16 00:58N 34°13' E 135°09'0 0.0
2017-Nov-16 00:28N 34°13' E 135°09'0 0.0
2017-Nov-15 23:58N 34°13' E 135°09'0 0.0
2017-Nov-15 23:28N 34°13' E 135°09'0 0.0
2017-Nov-15 22:58N 34°13' E 135°09'0 0.0
2017-Nov-15 22:28N 34°13' E 135°09'0 0.0
2017-Nov-15 21:58N 34°13' E 135°09'0 0.0
2017-Nov-15 21:28N 34°13' E 135°09'0 0.0
2017-Nov-15 20:58N 34°13' E 135°09'0 0.0
2017-Nov-15 20:28N 34°13' E 135°09'0 0.0
2017-Nov-15 19:58N 34°13' E 135°09'0 0.0
2017-Nov-15 19:28N 34°13' E 135°09'0 0.0
2017-Nov-15 18:58N 34°13' E 135°09'0 0.0
2017-Nov-15 18:28N 34°13' E 135°09'0 0.0
2017-Nov-15 17:58N 34°13' E 135°09'0 0.0
2017-Nov-15 17:28N 34°13' E 135°09'0 0.0
2017-Nov-15 16:58N 34°13' E 135°09'0 0.0
2017-Nov-15 16:28N 34°13' E 135°09'0 0.0
2017-Nov-15 15:58N 34°13' E 135°09'0 0.0
2017-Nov-15 15:28N 34°13' E 135°09'0 0.0
2017-Nov-15 14:58N 34°13' E 135°09'0 0.0
2017-Nov-15 14:28N 34°13' E 135°09'0 0.0
2017-Nov-15 13:58N 34°13' E 135°09'0 0.0
2017-Nov-15 13:28N 34°13' E 135°09'0 0.0
2017-Nov-15 12:58N 34°13' E 135°09'0 0.0
2017-Nov-15 12:28N 34°13' E 135°09'0 0.0
2017-Nov-15 11:58N 34°13' E 135°09'0 0.0
2017-Nov-15 11:28N 34°13' E 135°09'0 0.0
2017-Nov-15 10:58N 34°13' E 135°09'0 0.0
2017-Nov-15 10:28N 34°13' E 135°09'0 0.0
2017-Nov-15 09:58N 34°13' E 135°09'0 0.0
2017-Nov-15 09:28N 34°13' E 135°09'0 0.0
2017-Nov-15 08:58N 34°13' E 135°09'0 0.0
2017-Nov-15 08:28N 34°13' E 135°09'0 0.0
2017-Nov-15 07:58N 34°13' E 135°09'0 0.0
2017-Nov-15 07:28N 34°13' E 135°09'0 0.0
2017-Nov-15 06:58N 34°13' E 135°09'0 0.0
2017-Nov-15 06:28N 34°13' E 135°09'0 0.0
2017-Nov-15 05:58N 34°13' E 135°09'0 0.0
2017-Nov-15 05:28N 34°13' E 135°09'0 0.0
2017-Nov-15 04:58N 34°13' E 135°09'0 0.0
2017-Nov-15 04:28N 34°13' E 135°09'0 0.0
2017-Nov-15 03:58N 34°13' E 135°09'0 0.0
2017-Nov-15 03:28N 34°13' E 135°09'0 0.0
2017-Nov-15 02:58N 34°13' E 135°09'0 0.0
2017-Nov-15 02:28N 34°13' E 135°09'0 0.0
2017-Nov-15 01:58N 34°13' E 135°09'0 0.0
2017-Nov-15 01:28N 34°13' E 135°09'0 0.0
2017-Nov-15 00:58N 34°13' E 135°09'0 0.0
2017-Nov-15 00:28N 34°13' E 135°09'0 0.0
2017-Nov-14 23:58N 34°13' E 135°09'0 0.0
2017-Nov-14 23:28N 34°13' E 135°09'0 0.0
2017-Nov-14 22:58N 34°13' E 135°09'0 0.0
2017-Nov-14 22:28N 34°13' E 135°09'0 0.0
2017-Nov-14 21:58N 34°13' E 135°09'0 0.0
2017-Nov-14 21:28N 34°13' E 135°09'0 0.0
2017-Nov-14 20:58N 34°13' E 135°09'0 0.0
2017-Nov-14 20:28N 34°13' E 135°09'0 0.0
2017-Nov-14 19:58N 34°13' E 135°09'0 0.0
2017-Nov-14 19:28N 34°13' E 135°09'0 0.0
2017-Nov-14 18:58N 34°13' E 135°09'0 0.0
2017-Nov-14 18:28N 34°13' E 135°09'0 0.0
2017-Nov-14 17:58N 34°13' E 135°09'0 0.0
2017-Nov-14 17:28N 34°13' E 135°09'0 0.0
2017-Nov-14 16:58N 34°13' E 135°09'0 0.0
2017-Nov-14 16:28N 34°13' E 135°09'0 0.0
2017-Nov-14 15:58N 34°13' E 135°09'0 0.0
2017-Nov-14 15:28N 34°13' E 135°09'0 0.0
2017-Nov-14 14:58N 34°13' E 135°09'0 0.0
2017-Nov-14 14:28N 34°13' E 135°09'0 0.0
2017-Nov-14 13:58N 34°13' E 135°09'0 0.0
2017-Nov-14 13:28N 34°13' E 135°09'0 0.0
2017-Nov-14 12:55N 34°13' E 135°09'0 0.0
2017-Nov-14 12:28N 34°13' E 135°09'0 0.0
2017-Nov-14 11:58N 34°13' E 135°09'0 0.0
2017-Nov-14 11:28N 34°13' E 135°09'0 0.0
2017-Nov-14 10:58N 34°13' E 135°09'0 0.0
2017-Nov-14 10:28N 34°13' E 135°09'0 0.0
2017-Nov-14 09:58N 34°13' E 135°09'0 0.0
2017-Nov-14 09:28N 34°13' E 135°09'0 0.0
2017-Nov-14 08:58N 34°13' E 135°09'0 0.0
2017-Nov-14 08:28N 34°13' E 135°09'0 0.0
2017-Nov-14 07:58N 34°13' E 135°09'0 0.0
2017-Nov-14 07:28N 34°13' E 135°09'0 0.0
2017-Nov-14 06:58N 34°13' E 135°09'0 0.0
2017-Nov-14 06:28N 34°13' E 135°09'0 0.0
2017-Nov-14 05:58N 34°13' E 135°09'0 0.0
2017-Nov-14 05:28N 34°13' E 135°09'0 0.0
2017-Nov-14 04:58N 34°13' E 135°09'0 0.0
2017-Nov-14 04:28N 34°13' E 135°09'0 0.0
2017-Nov-14 03:58N 34°13' E 135°09'0 0.0
2017-Nov-14 03:28N 34°13' E 135°09'0 0.0
2017-Nov-14 02:58N 34°13' E 135°09'2 5.4
2017-Nov-14 02:30N 34°14' E 135°06'1 1.9
2017-Nov-14 01:55N 34°14' E 135°08'1 2.4
2017-Nov-14 01:29N 34°14' E 135°06'1 1.5
2017-Nov-14 01:00N 34°14' E 135°05'4 8.2
2017-Nov-14 00:30N 34°10' E 135°06'3 1.8
2017-Nov-13 23:01N 34°12' E 135°08'010.9
2017-Nov-13 22:59N 34°13' E 135°08'1 2.0
2017-Nov-13 22:30N 34°13' E 135°09'0 0.0
2017-Nov-13 22:00N 34°13' E 135°09'  

Dump ship's entire track history